sensor_id;sensor_type;location;lat;lon;timestamp;P1;durP1;ratioP1;P2;durP2;ratioP2
14732;SDS011;7457;50.960;6.830;2023-03-15T00:02:05;9.57;;;5.55;;
14732;SDS011;7457;50.960;6.830;2023-03-15T00:04:31;7.50;;;4.65;;
14732;SDS011;7457;50.960;6.830;2023-03-15T00:06:57;8.85;;;4.88;;
14732;SDS011;7457;50.960;6.830;2023-03-15T00:09:23;9.88;;;4.57;;
14732;SDS011;7457;50.960;6.830;2023-03-15T00:11:49;13.55;;;5.03;;
14732;SDS011;7457;50.960;6.830;2023-03-15T00:14:16;9.52;;;5.18;;
14732;SDS011;7457;50.960;6.830;2023-03-15T00:16:42;8.98;;;4.93;;
14732;SDS011;7457;50.960;6.830;2023-03-15T00:19:08;8.43;;;4.63;;
14732;SDS011;7457;50.960;6.830;2023-03-15T00:21:34;8.88;;;4.70;;
14732;SDS011;7457;50.960;6.830;2023-03-15T00:24:00;8.82;;;5.00;;
14732;SDS011;7457;50.960;6.830;2023-03-15T00:26:26;8.05;;;4.22;;
14732;SDS011;7457;50.960;6.830;2023-03-15T00:28:51;8.98;;;4.88;;
14732;SDS011;7457;50.960;6.830;2023-03-15T00:31:21;7.35;;;4.85;;
14732;SDS011;7457;50.960;6.830;2023-03-15T00:33:48;8.25;;;4.40;;
14732;SDS011;7457;50.960;6.830;2023-03-15T00:36:17;12.70;;;4.65;;
14732;SDS011;7457;50.960;6.830;2023-03-15T00:38:47;8.25;;;5.03;;
14732;SDS011;7457;50.960;6.830;2023-03-15T00:41:14;11.98;;;6.22;;
14732;SDS011;7457;50.960;6.830;2023-03-15T00:43:41;15.70;;;7.13;;
14732;SDS011;7457;50.960;6.830;2023-03-15T00:46:08;11.00;;;6.32;;
14732;SDS011;7457;50.960;6.830;2023-03-15T00:48:35;12.60;;;7.63;;
14732;SDS011;7457;50.960;6.830;2023-03-15T00:51:22;13.40;;;6.93;;
14732;SDS011;7457;50.960;6.830;2023-03-15T00:53:48;13.85;;;7.78;;
14732;SDS011;7457;50.960;6.830;2023-03-15T00:56:17;15.80;;;7.30;;
14732;SDS011;7457;50.960;6.830;2023-03-15T00:58:47;11.50;;;6.97;;
14732;SDS011;7457;50.960;6.830;2023-03-15T01:01:15;13.75;;;7.70;;
14732;SDS011;7457;50.960;6.830;2023-03-15T01:03:46;13.82;;;7.30;;
14732;SDS011;7457;50.960;6.830;2023-03-15T01:06:13;13.15;;;6.25;;
14732;SDS011;7457;50.960;6.830;2023-03-15T01:08:40;12.68;;;6.03;;
14732;SDS011;7457;50.960;6.830;2023-03-15T01:11:07;14.88;;;7.80;;
14732;SDS011;7457;50.960;6.830;2023-03-15T01:13:35;11.43;;;6.53;;
14732;SDS011;7457;50.960;6.830;2023-03-15T01:16:01;12.43;;;6.75;;
14732;SDS011;7457;50.960;6.830;2023-03-15T01:18:27;12.95;;;7.63;;
14732;SDS011;7457;50.960;6.830;2023-03-15T01:20:53;17.30;;;8.15;;
14732;SDS011;7457;50.960;6.830;2023-03-15T01:23:19;9.73;;;6.53;;
14732;SDS011;7457;50.960;6.830;2023-03-15T01:25:44;12.70;;;7.68;;
14732;SDS011;7457;50.960;6.830;2023-03-15T01:28:10;13.80;;;8.38;;
14732;SDS011;7457;50.960;6.830;2023-03-15T01:30:36;16.50;;;8.68;;
14732;SDS011;7457;50.960;6.830;2023-03-15T01:33:01;8.40;;;6.53;;
14732;SDS011;7457;50.960;6.830;2023-03-15T01:35:27;14.73;;;7.43;;
14732;SDS011;7457;50.960;6.830;2023-03-15T01:37:53;10.20;;;7.13;;
14732;SDS011;7457;50.960;6.830;2023-03-15T01:40:18;9.23;;;6.13;;
14732;SDS011;7457;50.960;6.830;2023-03-15T01:48:17;9.88;;;5.82;;
14732;SDS011;7457;50.960;6.830;2023-03-15T01:50:43;9.95;;;6.72;;
14732;SDS011;7457;50.960;6.830;2023-03-15T01:53:09;8.80;;;6.43;;
14732;SDS011;7457;50.960;6.830;2023-03-15T01:55:36;14.23;;;7.68;;
14732;SDS011;7457;50.960;6.830;2023-03-15T01:58:02;11.77;;;7.25;;
14732;SDS011;7457;50.960;6.830;2023-03-15T02:00:31;9.00;;;7.45;;
14732;SDS011;7457;50.960;6.830;2023-03-15T02:02:59;9.57;;;7.30;;
14732;SDS011;7457;50.960;6.830;2023-03-15T02:05:36;11.70;;;7.32;;
14732;SDS011;7457;50.960;6.830;2023-03-15T02:08:10;9.60;;;6.75;;
14732;SDS011;7457;50.960;6.830;2023-03-15T02:10:37;9.20;;;6.63;;
14732;SDS011;7457;50.960;6.830;2023-03-15T02:13:07;8.85;;;6.03;;
14732;SDS011;7457;50.960;6.830;2023-03-15T02:15:33;8.13;;;6.47;;
14732;SDS011;7457;50.960;6.830;2023-03-15T02:17:58;7.47;;;6.40;;
14732;SDS011;7457;50.960;6.830;2023-03-15T02:20:37;8.40;;;6.40;;
14732;SDS011;7457;50.960;6.830;2023-03-15T02:23:14;10.25;;;6.40;;
14732;SDS011;7457;50.960;6.830;2023-03-15T02:28:13;8.35;;;5.80;;
14732;SDS011;7457;50.960;6.830;2023-03-15T02:30:40;7.47;;;5.30;;
14732;SDS011;7457;50.960;6.830;2023-03-15T02:33:12;7.40;;;5.35;;
14732;SDS011;7457;50.960;6.830;2023-03-15T02:35:45;7.60;;;4.90;;
14732;SDS011;7457;50.960;6.830;2023-03-15T02:38:11;5.03;;;4.50;;
14732;SDS011;7457;50.960;6.830;2023-03-15T02:40:36;8.45;;;5.30;;
14732;SDS011;7457;50.960;6.830;2023-03-15T02:43:06;8.68;;;5.07;;
14732;SDS011;7457;50.960;6.830;2023-03-15T02:45:35;6.63;;;5.22;;
14732;SDS011;7457;50.960;6.830;2023-03-15T02:48:03;7.25;;;5.10;;
14732;SDS011;7457;50.960;6.830;2023-03-15T02:50:30;6.00;;;5.40;;
14732;SDS011;7457;50.960;6.830;2023-03-15T02:52:56;7.60;;;4.90;;
14732;SDS011;7457;50.960;6.830;2023-03-15T02:55:21;8.10;;;5.85;;
14732;SDS011;7457;50.960;6.830;2023-03-15T02:57:47;7.13;;;5.00;;
14732;SDS011;7457;50.960;6.830;2023-03-15T03:00:13;5.85;;;4.90;;
14732;SDS011;7457;50.960;6.830;2023-03-15T03:02:40;5.45;;;4.80;;
14732;SDS011;7457;50.960;6.830;2023-03-15T03:05:07;6.57;;;5.00;;
14732;SDS011;7457;50.960;6.830;2023-03-15T03:07:33;5.70;;;4.28;;
14732;SDS011;7457;50.960;6.830;2023-03-15T03:10:00;4.78;;;4.18;;
14732;SDS011;7457;50.960;6.830;2023-03-15T03:12:25;5.00;;;4.30;;
14732;SDS011;7457;50.960;6.830;2023-03-15T03:14:51;4.75;;;4.20;;
14732;SDS011;7457;50.960;6.830;2023-03-15T03:17:17;4.50;;;4.10;;
14732;SDS011;7457;50.960;6.830;2023-03-15T03:19:43;4.80;;;4.40;;
14732;SDS011;7457;50.960;6.830;2023-03-15T03:22:08;6.00;;;4.75;;
14732;SDS011;7457;50.960;6.830;2023-03-15T03:24:37;5.82;;;4.75;;
14732;SDS011;7457;50.960;6.830;2023-03-15T03:27:02;6.30;;;5.25;;
14732;SDS011;7457;50.960;6.830;2023-03-15T03:29:28;6.03;;;4.90;;
14732;SDS011;7457;50.960;6.830;2023-03-15T03:31:54;6.72;;;4.95;;
14732;SDS011;7457;50.960;6.830;2023-03-15T03:34:20;6.32;;;4.93;;
14732;SDS011;7457;50.960;6.830;2023-03-15T03:36:45;6.10;;;5.50;;
14732;SDS011;7457;50.960;6.830;2023-03-15T03:39:21;5.65;;;4.75;;
14732;SDS011;7457;50.960;6.830;2023-03-15T03:41:47;6.72;;;5.60;;
14732;SDS011;7457;50.960;6.830;2023-03-15T03:44:13;6.03;;;5.20;;
14732;SDS011;7457;50.960;6.830;2023-03-15T03:46:39;6.60;;;5.10;;
14732;SDS011;7457;50.960;6.830;2023-03-15T03:49:05;7.05;;;4.53;;
14732;SDS011;7457;50.960;6.830;2023-03-15T03:51:31;5.93;;;4.72;;
14732;SDS011;7457;50.960;6.830;2023-03-15T03:53:58;5.93;;;4.40;;
14732;SDS011;7457;50.960;6.830;2023-03-15T03:56:23;5.07;;;4.57;;
14732;SDS011;7457;50.960;6.830;2023-03-15T03:58:49;5.32;;;4.82;;
14732;SDS011;7457;50.960;6.830;2023-03-15T04:01:15;5.30;;;4.78;;
14732;SDS011;7457;50.960;6.830;2023-03-15T04:03:41;5.07;;;4.57;;
14732;SDS011;7457;50.960;6.830;2023-03-15T04:06:06;6.95;;;5.22;;
14732;SDS011;7457;50.960;6.830;2023-03-15T04:08:32;5.03;;;4.50;;
14732;SDS011;7457;50.960;6.830;2023-03-15T04:13:25;8.65;;;5.70;;
14732;SDS011;7457;50.960;6.830;2023-03-15T04:15:51;7.35;;;5.78;;
14732;SDS011;7457;50.960;6.830;2023-03-15T04:18:21;6.15;;;5.55;;
14732;SDS011;7457;50.960;6.830;2023-03-15T04:20:47;7.55;;;5.80;;
14732;SDS011;7457;50.960;6.830;2023-03-15T04:23:13;6.68;;;5.97;;
14732;SDS011;7457;50.960;6.830;2023-03-15T04:25:43;7.65;;;5.68;;
14732;SDS011;7457;50.960;6.830;2023-03-15T04:28:12;8.60;;;6.18;;
14732;SDS011;7457;50.960;6.830;2023-03-15T04:30:37;7.18;;;5.35;;
14732;SDS011;7457;50.960;6.830;2023-03-15T04:33:04;7.72;;;5.93;;
14732;SDS011;7457;50.960;6.830;2023-03-15T04:35:31;7.97;;;5.60;;
14732;SDS011;7457;50.960;6.830;2023-03-15T04:37:58;6.75;;;5.25;;
14732;SDS011;7457;50.960;6.830;2023-03-15T04:40:24;8.57;;;5.60;;
14732;SDS011;7457;50.960;6.830;2023-03-15T04:42:54;6.13;;;5.43;;
14732;SDS011;7457;50.960;6.830;2023-03-15T04:45:20;7.55;;;6.75;;
14732;SDS011;7457;50.960;6.830;2023-03-15T04:47:50;9.55;;;7.10;;
14732;SDS011;7457;50.960;6.830;2023-03-15T04:50:16;10.45;;;6.65;;
14732;SDS011;7457;50.960;6.830;2023-03-15T04:52:43;6.45;;;5.75;;
14732;SDS011;7457;50.960;6.830;2023-03-15T04:55:09;6.30;;;5.68;;
14732;SDS011;7457;50.960;6.830;2023-03-15T04:57:35;7.57;;;5.65;;
14732;SDS011;7457;50.960;6.830;2023-03-15T05:00:01;9.20;;;5.93;;
14732;SDS011;7457;50.960;6.830;2023-03-15T05:02:29;6.40;;;5.80;;
14732;SDS011;7457;50.960;6.830;2023-03-15T05:04:55;6.07;;;5.47;;
14732;SDS011;7457;50.960;6.830;2023-03-15T05:07:20;6.95;;;6.03;;
14732;SDS011;7457;50.960;6.830;2023-03-15T05:09:46;7.28;;;6.32;;
14732;SDS011;7457;50.960;6.830;2023-03-15T05:12:12;7.05;;;6.30;;
14732;SDS011;7457;50.960;6.830;2023-03-15T05:14:37;7.45;;;6.55;;
14732;SDS011;7457;50.960;6.830;2023-03-15T05:17:03;8.52;;;7.18;;
14732;SDS011;7457;50.960;6.830;2023-03-15T05:19:29;8.43;;;7.50;;
14732;SDS011;7457;50.960;6.830;2023-03-15T05:21:58;7.75;;;6.97;;
14732;SDS011;7457;50.960;6.830;2023-03-15T05:24:27;8.73;;;7.80;;
14732;SDS011;7457;50.960;6.830;2023-03-15T05:26:53;9.60;;;8.15;;
14732;SDS011;7457;50.960;6.830;2023-03-15T05:29:20;8.27;;;7.43;;
14732;SDS011;7457;50.960;6.830;2023-03-15T05:31:46;9.32;;;7.97;;
14732;SDS011;7457;50.960;6.830;2023-03-15T05:34:12;10.05;;;8.43;;
14732;SDS011;7457;50.960;6.830;2023-03-15T05:36:38;8.27;;;7.35;;
14732;SDS011;7457;50.960;6.830;2023-03-15T05:39:05;9.02;;;7.70;;
14732;SDS011;7457;50.960;6.830;2023-03-15T05:41:31;10.88;;;8.00;;
14732;SDS011;7457;50.960;6.830;2023-03-15T05:43:57;8.77;;;7.88;;
14732;SDS011;7457;50.960;6.830;2023-03-15T05:46:23;10.52;;;8.60;;
14732;SDS011;7457;50.960;6.830;2023-03-15T05:48:49;8.98;;;7.80;;
14732;SDS011;7457;50.960;6.830;2023-03-15T05:51:15;8.50;;;7.45;;
14732;SDS011;7457;50.960;6.830;2023-03-15T05:53:41;10.82;;;8.48;;
14732;SDS011;7457;50.960;6.830;2023-03-15T05:56:07;9.00;;;7.82;;
14732;SDS011;7457;50.960;6.830;2023-03-15T05:58:32;10.38;;;8.63;;
14732;SDS011;7457;50.960;6.830;2023-03-15T06:00:58;9.18;;;8.18;;
14732;SDS011;7457;50.960;6.830;2023-03-15T06:03:25;9.80;;;8.23;;
14732;SDS011;7457;50.960;6.830;2023-03-15T06:05:51;11.77;;;9.35;;
14732;SDS011;7457;50.960;6.830;2023-03-15T06:08:17;12.10;;;10.18;;
14732;SDS011;7457;50.960;6.830;2023-03-15T06:10:43;13.85;;;10.32;;
14732;SDS011;7457;50.960;6.830;2023-03-15T06:13:09;12.10;;;10.07;;
14732;SDS011;7457;50.960;6.830;2023-03-15T06:15:34;11.45;;;10.15;;
14732;SDS011;7457;50.960;6.830;2023-03-15T06:18:00;12.07;;;9.40;;
14732;SDS011;7457;50.960;6.830;2023-03-15T06:20:26;12.30;;;9.85;;
14732;SDS011;7457;50.960;6.830;2023-03-15T06:22:51;12.15;;;10.40;;
14732;SDS011;7457;50.960;6.830;2023-03-15T06:25:17;13.43;;;11.35;;
14732;SDS011;7457;50.960;6.830;2023-03-15T06:27:43;20.65;;;14.77;;
14732;SDS011;7457;50.960;6.830;2023-03-15T06:30:09;14.27;;;11.82;;
14732;SDS011;7457;50.960;6.830;2023-03-15T06:32:34;18.98;;;13.57;;
14732;SDS011;7457;50.960;6.830;2023-03-15T06:35:00;15.88;;;12.40;;
14732;SDS011;7457;50.960;6.830;2023-03-15T06:37:26;21.58;;;15.88;;
14732;SDS011;7457;50.960;6.830;2023-03-15T06:39:51;16.15;;;13.85;;
14732;SDS011;7457;50.960;6.830;2023-03-15T06:42:18;14.65;;;11.50;;
14732;SDS011;7457;50.960;6.830;2023-03-15T06:44:44;14.65;;;10.77;;
14732;SDS011;7457;50.960;6.830;2023-03-15T06:47:09;13.55;;;11.60;;
14732;SDS011;7457;50.960;6.830;2023-03-15T06:49:35;14.60;;;10.68;;
14732;SDS011;7457;50.960;6.830;2023-03-15T06:52:01;12.75;;;10.38;;
14732;SDS011;7457;50.960;6.830;2023-03-15T06:54:28;16.48;;;12.23;;
14732;SDS011;7457;50.960;6.830;2023-03-15T06:56:54;14.25;;;11.20;;
14732;SDS011;7457;50.960;6.830;2023-03-15T06:59:20;13.50;;;10.40;;
14732;SDS011;7457;50.960;6.830;2023-03-15T07:01:48;13.98;;;10.77;;
14732;SDS011;7457;50.960;6.830;2023-03-15T07:04:14;15.60;;;11.13;;
14732;SDS011;7457;50.960;6.830;2023-03-15T07:06:40;12.77;;;10.38;;
14732;SDS011;7457;50.960;6.830;2023-03-15T07:09:06;14.20;;;11.55;;
14732;SDS011;7457;50.960;6.830;2023-03-15T07:11:31;16.20;;;11.38;;
14732;SDS011;7457;50.960;6.830;2023-03-15T07:13:57;13.63;;;11.45;;
14732;SDS011;7457;50.960;6.830;2023-03-15T07:16:23;13.32;;;10.70;;
14732;SDS011;7457;50.960;6.830;2023-03-15T07:18:49;13.65;;;11.75;;
14732;SDS011;7457;50.960;6.830;2023-03-15T07:21:15;14.18;;;11.40;;
14732;SDS011;7457;50.960;6.830;2023-03-15T07:23:41;16.13;;;12.43;;
14732;SDS011;7457;50.960;6.830;2023-03-15T07:26:06;17.45;;;13.88;;
14732;SDS011;7457;50.960;6.830;2023-03-15T07:28:32;15.90;;;12.90;;
14732;SDS011;7457;50.960;6.830;2023-03-15T07:30:59;17.23;;;13.73;;
14732;SDS011;7457;50.960;6.830;2023-03-15T07:33:26;18.75;;;14.88;;
14732;SDS011;7457;50.960;6.830;2023-03-15T07:35:53;21.13;;;15.70;;
14732;SDS011;7457;50.960;6.830;2023-03-15T07:38:20;18.00;;;14.13;;
14732;SDS011;7457;50.960;6.830;2023-03-15T07:40:48;21.27;;;14.57;;
14732;SDS011;7457;50.960;6.830;2023-03-15T07:43:13;19.52;;;14.95;;
14732;SDS011;7457;50.960;6.830;2023-03-15T07:45:39;17.25;;;13.23;;
14732;SDS011;7457;50.960;6.830;2023-03-15T07:48:06;19.00;;;12.88;;
14732;SDS011;7457;50.960;6.830;2023-03-15T07:50:32;14.75;;;12.35;;
14732;SDS011;7457;50.960;6.830;2023-03-15T07:52:58;14.60;;;12.25;;
14732;SDS011;7457;50.960;6.830;2023-03-15T07:55:24;14.18;;;11.88;;
14732;SDS011;7457;50.960;6.830;2023-03-15T07:57:50;15.95;;;12.05;;
14732;SDS011;7457;50.960;6.830;2023-03-15T08:00:16;16.65;;;13.13;;
14732;SDS011;7457;50.960;6.830;2023-03-15T08:02:42;16.02;;;12.38;;
14732;SDS011;7457;50.960;6.830;2023-03-15T08:05:08;16.95;;;13.05;;
14732;SDS011;7457;50.960;6.830;2023-03-15T08:07:35;17.95;;;13.32;;
14732;SDS011;7457;50.960;6.830;2023-03-15T08:10:03;17.60;;;13.10;;
14732;SDS011;7457;50.960;6.830;2023-03-15T08:12:30;17.13;;;13.65;;
14732;SDS011;7457;50.960;6.830;2023-03-15T08:14:57;18.45;;;14.10;;
14732;SDS011;7457;50.960;6.830;2023-03-15T08:17:22;19.08;;;14.50;;
14732;SDS011;7457;50.960;6.830;2023-03-15T08:19:48;17.75;;;13.65;;
14732;SDS011;7457;50.960;6.830;2023-03-15T08:22:14;18.00;;;13.60;;
14732;SDS011;7457;50.960;6.830;2023-03-15T08:24:40;18.00;;;13.70;;
14732;SDS011;7457;50.960;6.830;2023-03-15T08:27:06;21.45;;;14.30;;
14732;SDS011;7457;50.960;6.830;2023-03-15T08:29:32;20.58;;;14.85;;
14732;SDS011;7457;50.960;6.830;2023-03-15T08:31:57;20.15;;;14.45;;
14732;SDS011;7457;50.960;6.830;2023-03-15T08:34:23;16.63;;;12.48;;
14732;SDS011;7457;50.960;6.830;2023-03-15T08:36:49;15.88;;;12.43;;
14732;SDS011;7457;50.960;6.830;2023-03-15T08:39:15;16.73;;;12.38;;
14732;SDS011;7457;50.960;6.830;2023-03-15T08:41:41;14.95;;;11.55;;
14732;SDS011;7457;50.960;6.830;2023-03-15T08:44:07;18.23;;;12.25;;
14732;SDS011;7457;50.960;6.830;2023-03-15T08:46:33;14.70;;;11.07;;
14732;SDS011;7457;50.960;6.830;2023-03-15T08:48:59;15.65;;;11.98;;
14732;SDS011;7457;50.960;6.830;2023-03-15T08:51:26;14.10;;;10.07;;
14732;SDS011;7457;50.960;6.830;2023-03-15T08:53:53;14.23;;;10.38;;
14732;SDS011;7457;50.960;6.830;2023-03-15T08:56:18;13.93;;;10.13;;
14732;SDS011;7457;50.960;6.830;2023-03-15T08:58:45;13.55;;;10.88;;
14732;SDS011;7457;50.960;6.830;2023-03-15T09:01:11;15.15;;;10.18;;
14732;SDS011;7457;50.960;6.830;2023-03-15T09:03:37;17.88;;;11.52;;
14732;SDS011;7457;50.960;6.830;2023-03-15T09:06:03;15.82;;;9.80;;
14732;SDS011;7457;50.960;6.830;2023-03-15T09:08:29;15.55;;;11.13;;
14732;SDS011;7457;50.960;6.830;2023-03-15T09:10:57;13.43;;;9.45;;
14732;SDS011;7457;50.960;6.830;2023-03-15T09:13:23;12.57;;;9.52;;
14732;SDS011;7457;50.960;6.830;2023-03-15T09:15:50;13.10;;;9.38;;
14732;SDS011;7457;50.960;6.830;2023-03-15T09:18:17;12.90;;;9.98;;
14732;SDS011;7457;50.960;6.830;2023-03-15T09:20:44;15.90;;;10.23;;
14732;SDS011;7457;50.960;6.830;2023-03-15T09:23:10;15.32;;;9.85;;
14732;SDS011;7457;50.960;6.830;2023-03-15T09:25:35;13.15;;;9.48;;
14732;SDS011;7457;50.960;6.830;2023-03-15T09:28:02;10.70;;;8.82;;
14732;SDS011;7457;50.960;6.830;2023-03-15T09:30:32;10.20;;;8.60;;
14732;SDS011;7457;50.960;6.830;2023-03-15T09:32:58;12.95;;;8.63;;
14732;SDS011;7457;50.960;6.830;2023-03-15T09:35:24;11.57;;;9.68;;
14732;SDS011;7457;50.960;6.830;2023-03-15T09:37:50;10.15;;;8.10;;
14732;SDS011;7457;50.960;6.830;2023-03-15T09:40:21;15.10;;;7.97;;
14732;SDS011;7457;50.960;6.830;2023-03-15T09:50:40;8.43;;;4.57;;
14732;SDS011;7457;50.960;6.830;2023-03-15T09:53:16;4.25;;;3.58;;
14732;SDS011;7457;50.960;6.830;2023-03-15T09:55:50;7.03;;;3.85;;
14732;SDS011;7457;50.960;6.830;2023-03-15T09:58:18;4.60;;;3.00;;
14732;SDS011;7457;50.960;6.830;2023-03-15T10:01:03;5.38;;;3.00;;
14732;SDS011;7457;50.960;6.830;2023-03-15T10:03:39;7.45;;;3.35;;
14732;SDS011;7457;50.960;6.830;2023-03-15T10:06:11;7.22;;;3.78;;
14732;SDS011;7457;50.960;6.830;2023-03-15T10:08:41;7.32;;;4.05;;
14732;SDS011;7457;50.960;6.830;2023-03-15T10:16:46;6.25;;;3.35;;
14732;SDS011;7457;50.960;6.830;2023-03-15T10:19:14;5.15;;;3.53;;
14732;SDS011;7457;50.960;6.830;2023-03-15T10:22:01;5.95;;;3.67;;
14732;SDS011;7457;50.960;6.830;2023-03-15T10:24:44;7.13;;;3.67;;
14732;SDS011;7457;50.960;6.830;2023-03-15T10:27:20;4.53;;;3.53;;
14732;SDS011;7457;50.960;6.830;2023-03-15T10:29:51;6.93;;;3.75;;
14732;SDS011;7457;50.960;6.830;2023-03-15T10:32:21;7.53;;;4.13;;
14732;SDS011;7457;50.960;6.830;2023-03-15T10:34:51;7.15;;;4.10;;
14732;SDS011;7457;50.960;6.830;2023-03-15T10:37:20;4.38;;;3.92;;
14732;SDS011;7457;50.960;6.830;2023-03-15T10:39:48;4.13;;;3.72;;
14732;SDS011;7457;50.960;6.830;2023-03-15T10:42:25;7.55;;;3.83;;
14732;SDS011;7457;50.960;6.830;2023-03-15T10:44:52;7.65;;;4.00;;
14732;SDS011;7457;50.960;6.830;2023-03-15T10:47:19;5.43;;;4.05;;
14732;SDS011;7457;50.960;6.830;2023-03-15T10:49:45;7.07;;;3.90;;
14732;SDS011;7457;50.960;6.830;2023-03-15T10:54:55;5.32;;;3.35;;
14732;SDS011;7457;50.960;6.830;2023-03-15T10:57:24;8.85;;;4.05;;
14732;SDS011;7457;50.960;6.830;2023-03-15T10:59:59;8.82;;;4.60;;
14732;SDS011;7457;50.960;6.830;2023-03-15T11:02:33;4.32;;;3.00;;
14732;SDS011;7457;50.960;6.830;2023-03-15T11:07:33;6.97;;;3.40;;
14732;SDS011;7457;50.960;6.830;2023-03-15T11:10:00;7.18;;;3.25;;
14732;SDS011;7457;50.960;6.830;2023-03-15T11:12:31;3.25;;;2.50;;
14732;SDS011;7457;50.960;6.830;2023-03-15T11:15:12;3.88;;;2.92;;
14732;SDS011;7457;50.960;6.830;2023-03-15T11:17:43;4.00;;;2.80;;
14732;SDS011;7457;50.960;6.830;2023-03-15T11:22:56;6.45;;;3.22;;
14732;SDS011;7457;50.960;6.830;2023-03-15T11:25:25;7.32;;;3.38;;
14732;SDS011;7457;50.960;6.830;2023-03-15T11:27:55;8.48;;;2.95;;
14732;SDS011;7457;50.960;6.830;2023-03-15T11:30:24;5.88;;;2.80;;
14732;SDS011;7457;50.960;6.830;2023-03-15T11:32:53;6.50;;;3.03;;
14732;SDS011;7457;50.960;6.830;2023-03-15T11:38:16;5.28;;;3.08;;
14732;SDS011;7457;50.960;6.830;2023-03-15T11:40:51;5.35;;;3.35;;
14732;SDS011;7457;50.960;6.830;2023-03-15T11:43:21;6.15;;;3.63;;
14732;SDS011;7457;50.960;6.830;2023-03-15T11:48:33;5.85;;;3.03;;
14732;SDS011;7457;50.960;6.830;2023-03-15T11:51:35;7.70;;;3.67;;
14732;SDS011;7457;50.960;6.830;2023-03-15T11:59:08;5.80;;;2.70;;
14732;SDS011;7457;50.960;6.830;2023-03-15T12:01:40;5.10;;;2.90;;
14732;SDS011;7457;50.960;6.830;2023-03-15T12:06:51;7.15;;;2.67;;
14732;SDS011;7457;50.960;6.830;2023-03-15T12:11:57;5.10;;;2.90;;
14732;SDS011;7457;50.960;6.830;2023-03-15T12:14:31;6.78;;;2.63;;
14732;SDS011;7457;50.960;6.830;2023-03-15T12:22:35;5.35;;;2.42;;
14732;SDS011;7457;50.960;6.830;2023-03-15T12:25:15;5.60;;;2.55;;
14732;SDS011;7457;50.960;6.830;2023-03-15T12:28:01;4.47;;;2.33;;
14732;SDS011;7457;50.960;6.830;2023-03-15T12:30:34;5.05;;;2.53;;
14732;SDS011;7457;50.960;6.830;2023-03-15T12:33:02;5.57;;;2.80;;
14732;SDS011;7457;50.960;6.830;2023-03-15T12:35:30;4.03;;;2.30;;
14732;SDS011;7457;50.960;6.830;2023-03-15T12:38:03;2.50;;;2.05;;
14732;SDS011;7457;50.960;6.830;2023-03-15T12:40:47;6.05;;;2.50;;
14732;SDS011;7457;50.960;6.830;2023-03-15T12:43:14;3.03;;;2.15;;
14732;SDS011;7457;50.960;6.830;2023-03-15T12:45:40;4.72;;;2.53;;
14732;SDS011;7457;50.960;6.830;2023-03-15T12:53:15;4.72;;;2.03;;
14732;SDS011;7457;50.960;6.830;2023-03-15T12:55:46;6.82;;;2.08;;
14732;SDS011;7457;50.960;6.830;2023-03-15T12:58:13;4.20;;;2.17;;
14732;SDS011;7457;50.960;6.830;2023-03-15T13:00:41;4.32;;;2.38;;
14732;SDS011;7457;50.960;6.830;2023-03-15T13:03:12;7.05;;;2.10;;
14732;SDS011;7457;50.960;6.830;2023-03-15T13:18:46;5.18;;;2.35;;
14732;SDS011;7457;50.960;6.830;2023-03-15T13:24:00;2.30;;;1.83;;
14732;SDS011;7457;50.960;6.830;2023-03-15T13:31:38;4.60;;;2.35;;
14732;SDS011;7457;50.960;6.830;2023-03-15T13:34:10;4.53;;;2.05;;
14732;SDS011;7457;50.960;6.830;2023-03-15T13:39:18;6.18;;;2.17;;
14732;SDS011;7457;50.960;6.830;2023-03-15T13:41:47;4.63;;;1.85;;
14732;SDS011;7457;50.960;6.830;2023-03-15T13:44:20;4.70;;;2.10;;
14732;SDS011;7457;50.960;6.830;2023-03-15T13:46:48;4.60;;;1.83;;
14732;SDS011;7457;50.960;6.830;2023-03-15T13:49:14;3.83;;;1.95;;
14732;SDS011;7457;50.960;6.830;2023-03-15T13:51:41;3.00;;;2.10;;
14732;SDS011;7457;50.960;6.830;2023-03-15T13:54:15;4.03;;;1.75;;
14732;SDS011;7457;50.960;6.830;2023-03-15T13:57:05;5.45;;;2.08;;
14732;SDS011;7457;50.960;6.830;2023-03-15T13:59:38;2.05;;;1.75;;
14732;SDS011;7457;50.960;6.830;2023-03-15T14:02:18;5.38;;;2.20;;
14732;SDS011;7457;50.960;6.830;2023-03-15T14:04:48;4.68;;;1.95;;
14732;SDS011;7457;50.960;6.830;2023-03-15T14:18:23;3.35;;;1.70;;
14732;SDS011;7457;50.960;6.830;2023-03-15T14:20:56;4.65;;;2.00;;
14732;SDS011;7457;50.960;6.830;2023-03-15T14:23:24;4.22;;;1.83;;
14732;SDS011;7457;50.960;6.830;2023-03-15T14:25:51;4.22;;;1.60;;
14732;SDS011;7457;50.960;6.830;2023-03-15T14:28:19;5.53;;;1.83;;
14732;SDS011;7457;50.960;6.830;2023-03-15T14:30:55;3.05;;;1.90;;
14732;SDS011;7457;50.960;6.830;2023-03-15T14:33:38;2.28;;;1.70;;
14732;SDS011;7457;50.960;6.830;2023-03-15T14:36:06;6.88;;;2.38;;
14732;SDS011;7457;50.960;6.830;2023-03-15T14:38:49;3.97;;;2.15;;
14732;SDS011;7457;50.960;6.830;2023-03-15T14:41:22;5.47;;;1.92;;
14732;SDS011;7457;50.960;6.830;2023-03-15T14:43:51;5.68;;;2.28;;
14732;SDS011;7457;50.960;6.830;2023-03-15T14:46:18;4.10;;;2.10;;
14732;SDS011;7457;50.960;6.830;2023-03-15T14:48:43;2.58;;;2.17;;
14732;SDS011;7457;50.960;6.830;2023-03-15T14:51:14;3.53;;;1.77;;
14732;SDS011;7457;50.960;6.830;2023-03-15T14:53:42;3.03;;;2.00;;
14732;SDS011;7457;50.960;6.830;2023-03-15T14:56:10;7.15;;;2.22;;
14732;SDS011;7457;50.960;6.830;2023-03-15T14:58:39;4.75;;;1.98;;
14732;SDS011;7457;50.960;6.830;2023-03-15T15:01:06;4.35;;;1.85;;
14732;SDS011;7457;50.960;6.830;2023-03-15T15:05:59;4.05;;;1.90;;
14732;SDS011;7457;50.960;6.830;2023-03-15T15:08:26;3.28;;;1.67;;
14732;SDS011;7457;50.960;6.830;2023-03-15T15:10:54;3.85;;;1.92;;
14732;SDS011;7457;50.960;6.830;2023-03-15T15:13:22;5.18;;;2.22;;
14732;SDS011;7457;50.960;6.830;2023-03-15T15:15:50;2.20;;;2.00;;
14732;SDS011;7457;50.960;6.830;2023-03-15T15:18:16;4.80;;;1.80;;
14732;SDS011;7457;50.960;6.830;2023-03-15T15:20:42;4.55;;;1.67;;
14732;SDS011;7457;50.960;6.830;2023-03-15T15:23:18;4.18;;;1.95;;
14732;SDS011;7457;50.960;6.830;2023-03-15T15:25:46;3.78;;;1.73;;
14732;SDS011;7457;50.960;6.830;2023-03-15T15:28:12;5.50;;;1.67;;
14732;SDS011;7457;50.960;6.830;2023-03-15T15:30:39;3.13;;;2.08;;
14732;SDS011;7457;50.960;6.830;2023-03-15T15:33:04;7.00;;;2.63;;
14732;SDS011;7457;50.960;6.830;2023-03-15T15:35:30;6.60;;;1.90;;
14732;SDS011;7457;50.960;6.830;2023-03-15T15:37:56;4.35;;;1.95;;
14732;SDS011;7457;50.960;6.830;2023-03-15T15:40:26;3.35;;;1.70;;
14732;SDS011;7457;50.960;6.830;2023-03-15T15:42:56;5.65;;;2.55;;
14732;SDS011;7457;50.960;6.830;2023-03-15T15:45:22;6.65;;;1.85;;
14732;SDS011;7457;50.960;6.830;2023-03-15T15:47:49;3.95;;;2.28;;
14732;SDS011;7457;50.960;6.830;2023-03-15T15:50:16;5.78;;;1.70;;
14732;SDS011;7457;50.960;6.830;2023-03-15T15:52:44;5.40;;;2.10;;
14732;SDS011;7457;50.960;6.830;2023-03-15T15:55:19;2.22;;;1.50;;
14732;SDS011;7457;50.960;6.830;2023-03-15T15:57:48;3.47;;;1.92;;
14732;SDS011;7457;50.960;6.830;2023-03-15T16:00:18;5.00;;;2.10;;
14732;SDS011;7457;50.960;6.830;2023-03-15T16:02:49;5.35;;;1.80;;
14732;SDS011;7457;50.960;6.830;2023-03-15T16:05:19;4.03;;;1.77;;
14732;SDS011;7457;50.960;6.830;2023-03-15T16:07:47;2.50;;;1.77;;
14732;SDS011;7457;50.960;6.830;2023-03-15T16:10:18;5.97;;;1.73;;
14732;SDS011;7457;50.960;6.830;2023-03-15T16:12:59;6.22;;;2.10;;
14732;SDS011;7457;50.960;6.830;2023-03-15T16:15:26;4.45;;;1.90;;
14732;SDS011;7457;50.960;6.830;2023-03-15T16:17:51;2.33;;;1.60;;
14732;SDS011;7457;50.960;6.830;2023-03-15T16:20:17;3.08;;;1.77;;
14732;SDS011;7457;50.960;6.830;2023-03-15T16:22:50;3.40;;;1.63;;
14732;SDS011;7457;50.960;6.830;2023-03-15T16:25:22;4.72;;;2.35;;
14732;SDS011;7457;50.960;6.830;2023-03-15T16:27:51;3.35;;;1.80;;
14732;SDS011;7457;50.960;6.830;2023-03-15T16:30:20;3.53;;;1.60;;
14732;SDS011;7457;50.960;6.830;2023-03-15T16:32:48;5.82;;;1.83;;
14732;SDS011;7457;50.960;6.830;2023-03-15T16:35:19;3.35;;;1.67;;